createdAt,value
2022-12-17T00:00:33.428Z,23.03
2022-12-17T00:03:19.942Z,22.60
2022-12-17T00:06:05.748Z,20.60
2022-12-17T00:08:51.837Z,20.70
2022-12-17T00:11:37.505Z,20.80
2022-12-17T00:14:23.033Z,20.37
2022-12-17T00:17:11.464Z,21.87
2022-12-17T00:19:57.318Z,21.17
2022-12-17T00:22:43.310Z,20.43
2022-12-17T00:25:28.671Z,19.70
2022-12-17T00:28:14.597Z,20.03
2022-12-17T00:31:00.725Z,21.27
2022-12-17T00:33:46.325Z,20.00
2022-12-17T00:36:31.795Z,19.40
2022-12-17T00:39:17.613Z,19.63
2022-12-17T00:42:03.001Z,20.13
2022-12-17T00:44:48.991Z,19.30
2022-12-17T00:47:34.342Z,20.07
2022-12-17T00:50:20.167Z,20.87
2022-12-17T00:53:11.010Z,18.47
2022-12-17T00:55:56.378Z,19.97
2022-12-17T00:58:42.831Z,19.37
2022-12-17T01:01:28.367Z,18.73
2022-12-17T01:04:13.736Z,20.27
2022-12-17T01:06:59.272Z,18.33
2022-12-17T01:09:44.582Z,18.83
2022-12-17T01:12:30.533Z,19.60
2022-12-17T01:15:16.544Z,20.27
2022-12-17T01:18:02.374Z,19.70
2022-12-17T01:20:48.206Z,18.77
2022-12-17T01:23:34.034Z,20.27
2022-12-17T01:26:19.633Z,21.93
2022-12-17T01:29:05.235Z,22.13
2022-12-17T01:31:51.135Z,22.37
2022-12-17T01:34:36.801Z,20.17
2022-12-17T01:37:22.861Z,20.43
2022-12-17T01:40:08.253Z,22.97
2022-12-17T01:42:58.352Z,21.37
2022-12-17T01:45:46.415Z,22.07
2022-12-17T01:48:36.215Z,23.00
2022-12-17T01:51:22.688Z,23.00
2022-12-17T01:54:11.201Z,23.80
2022-12-17T01:56:59.869Z,21.57
2022-12-17T02:00:17.067Z,21.77
2022-12-17T02:03:02.732Z,21.93
2022-12-17T02:05:57.964Z,21.13
2022-12-17T02:09:03.088Z,21.03
2022-12-17T02:12:07.153Z,20.33
2022-12-17T02:14:59.714Z,22.07
2022-12-17T02:17:54.722Z,20.17
2022-12-17T02:20:49.195Z,20.67
2022-12-17T02:23:35.509Z,21.90
2022-12-17T02:26:49.572Z,21.13
2022-12-17T02:29:36.808Z,21.53
2022-12-17T02:32:23.822Z,21.70
2022-12-17T02:35:09.613Z,20.53
2022-12-17T02:37:55.399Z,20.53
2022-12-17T02:40:42.721Z,19.83
2022-12-17T02:43:30.153Z,19.80
2022-12-17T02:46:16.101Z,21.03
2022-12-17T02:49:02.152Z,20.40
2022-12-17T02:51:47.579Z,22.03
2022-12-17T02:54:33.414Z,20.80
2022-12-17T02:57:19.386Z,22.10
2022-12-17T03:00:05.117Z,21.57
2022-12-17T03:02:51.210Z,21.00
2022-12-17T03:05:44.880Z,20.23
2022-12-17T03:08:31.257Z,21.80
2022-12-17T03:11:17.135Z,20.87
2022-12-17T03:14:03.148Z,19.23
2022-12-17T03:16:49.124Z,20.63
2022-12-17T03:19:34.750Z,19.77
2022-12-17T03:22:20.747Z,21.80
2022-12-17T03:25:06.560Z,20.73
2022-12-17T03:27:52.462Z,20.20
2022-12-17T03:30:39.056Z,20.13
2022-12-17T03:33:27.623Z,20.33
2022-12-17T03:36:13.616Z,19.97
2022-12-17T03:38:59.087Z,19.07
2022-12-17T03:41:44.538Z,21.53
2022-12-17T03:44:30.452Z,19.53
2022-12-17T03:47:16.153Z,18.17
2022-12-17T03:50:01.470Z,20.50
2022-12-17T03:52:46.920Z,19.00
2022-12-17T03:55:32.853Z,21.00
2022-12-17T03:58:18.810Z,20.07
2022-12-17T04:01:04.258Z,20.43
2022-12-17T04:03:50.224Z,19.50
2022-12-17T04:06:35.523Z,19.43
2022-12-17T04:09:22.949Z,19.13
2022-12-17T04:12:08.498Z,18.77
2022-12-17T04:14:53.888Z,17.87
2022-12-17T04:17:39.863Z,18.30
2022-12-17T04:20:25.847Z,17.83
2022-12-17T04:23:11.588Z,18.87
2022-12-17T04:25:57.039Z,18.30
2022-12-17T04:28:42.359Z,18.23
2022-12-17T04:31:28.375Z,18.23
2022-12-17T04:34:14.075Z,17.83
2022-12-17T04:36:59.963Z,17.00
2022-12-17T04:39:45.392Z,17.57
2022-12-17T04:42:30.695Z,17.73
2022-12-17T04:45:16.668Z,17.30
2022-12-17T04:48:02.783Z,16.93
2022-12-17T04:50:48.871Z,17.93
2022-12-17T04:53:35.299Z,16.27
2022-12-17T04:56:21.097Z,18.10
2022-12-17T04:59:06.517Z,15.67
2022-12-17T05:01:51.952Z,17.03
2022-12-17T05:04:36.987Z,17.63
2022-12-17T05:07:22.402Z,17.80
2022-12-17T05:10:07.874Z,17.07
2022-12-17T05:12:53.722Z,16.70
2022-12-17T05:15:39.786Z,18.47
2022-12-17T05:18:26.639Z,16.90
2022-12-17T05:21:12.267Z,15.97
2022-12-17T05:23:58.158Z,16.73
2022-12-17T05:26:46.617Z,15.33
2022-12-17T05:29:32.721Z,16.67
2022-12-17T05:32:18.199Z,15.90
2022-12-17T05:35:03.944Z,15.73
2022-12-17T05:37:49.830Z,16.67
2022-12-17T05:40:35.330Z,18.90
2022-12-17T05:43:23.705Z,17.60
2022-12-17T05:46:09.591Z,17.57
2022-12-17T05:48:55.093Z,16.87
2022-12-17T05:51:41.120Z,18.30
2022-12-17T05:54:43.833Z,17.63
2022-12-17T05:57:29.293Z,18.40
2022-12-17T06:00:14.695Z,18.27
2022-12-17T06:03:00.346Z,18.93
2022-12-17T06:05:45.736Z,19.33
2022-12-17T06:08:31.120Z,19.77
2022-12-17T06:11:19.023Z,20.03
2022-12-17T06:14:05.492Z,20.17
2022-12-17T06:16:50.901Z,19.43
2022-12-17T06:19:36.285Z,20.33
2022-12-17T06:22:21.723Z,19.80
2022-12-17T06:25:07.125Z,20.57
2022-12-17T06:28:00.522Z,19.97
2022-12-17T06:30:46.807Z,18.40
2022-12-17T06:33:32.369Z,18.70
2022-12-17T06:36:22.525Z,18.30
2022-12-17T06:39:08.804Z,18.10
2022-12-17T06:42:02.032Z,18.00
2022-12-17T06:44:49.335Z,17.80
2022-12-17T06:47:34.523Z,16.70
2022-12-17T06:50:20.006Z,16.87
2022-12-17T06:53:05.954Z,17.23
2022-12-17T06:55:53.874Z,17.40
2022-12-17T06:58:39.796Z,17.27
2022-12-17T07:01:25.318Z,17.40
2022-12-17T07:04:10.540Z,18.57
2022-12-17T07:06:56.468Z,17.73
2022-12-17T07:09:42.439Z,17.93
2022-12-17T07:12:28.270Z,16.40
2022-12-17T07:15:13.699Z,17.73
2022-12-17T07:18:00.630Z,17.87
2022-12-17T07:20:46.386Z,15.90
2022-12-17T07:23:31.927Z,16.37
2022-12-17T07:26:17.788Z,16.33
2022-12-17T07:29:03.351Z,16.43
2022-12-17T07:31:49.477Z,16.27
2022-12-17T07:34:35.153Z,15.77
2022-12-17T07:37:21.001Z,16.27
2022-12-17T07:40:06.464Z,15.37
2022-12-17T07:42:51.875Z,14.57
2022-12-17T07:45:37.876Z,14.80
2022-12-17T07:48:24.013Z,15.57
2022-12-17T07:51:09.955Z,14.93
2022-12-17T07:53:56.125Z,14.13
2022-12-17T07:56:41.937Z,14.40
2022-12-17T07:59:27.841Z,15.27
2022-12-17T08:02:15.978Z,15.27
2022-12-17T08:05:01.212Z,15.53
2022-12-17T08:07:46.631Z,14.43
2022-12-17T08:10:32.530Z,14.83
2022-12-17T08:13:19.967Z,15.03
2022-12-17T08:16:06.618Z,15.10
2022-12-17T08:18:52.619Z,13.90
2022-12-17T08:21:38.578Z,14.20
2022-12-17T08:24:24.451Z,14.93
2022-12-17T08:27:09.983Z,14.47
2022-12-17T08:29:55.446Z,15.20
2022-12-17T08:32:40.883Z,15.10
2022-12-17T08:35:26.467Z,14.63
2022-12-17T08:38:12.396Z,13.80
2022-12-17T08:40:57.823Z,13.50
2022-12-17T08:43:43.400Z,14.90
2022-12-17T08:46:39.386Z,13.03
2022-12-17T08:49:24.881Z,13.47
2022-12-17T08:52:10.724Z,14.87
2022-12-17T08:54:56.550Z,13.83
2022-12-17T08:57:42.383Z,14.40
2022-12-17T09:00:28.656Z,14.43
2022-12-17T09:03:17.961Z,14.07
2022-12-17T09:06:03.251Z,13.97
2022-12-17T09:08:49.220Z,13.57
2022-12-17T09:11:35.184Z,14.43
2022-12-17T09:14:22.479Z,15.67
2022-12-17T09:17:07.999Z,14.20
2022-12-17T09:19:53.295Z,13.47
2022-12-17T09:22:38.609Z,13.13
2022-12-17T09:25:24.648Z,13.83
2022-12-17T09:28:10.527Z,13.70
2022-12-17T09:30:56.009Z,11.00
2022-12-17T09:33:41.687Z,11.33
2022-12-17T09:36:27.763Z,12.17
2022-12-17T09:39:13.618Z,26.63
2022-12-17T09:42:03.958Z,18.23
2022-12-17T09:44:56.421Z,14.30
2022-12-17T09:47:50.619Z,12.27
2022-12-17T09:50:36.529Z,12.60
2022-12-17T09:53:26.600Z,14.20
2022-12-17T09:56:12.562Z,13.47
2022-12-17T09:58:58.991Z,11.57
2022-12-17T10:01:51.174Z,14.60
2022-12-17T10:04:41.981Z,15.83
2022-12-17T10:07:38.554Z,11.13
2022-12-17T10:10:34.234Z,11.97
2022-12-17T10:13:20.325Z,11.30
2022-12-17T10:16:06.321Z,10.80
2022-12-17T10:18:51.982Z,10.70
2022-12-17T10:21:38.363Z,10.60
2022-12-17T10:24:28.294Z,11.17
2022-12-17T10:27:14.052Z,11.57
2022-12-17T10:30:02.011Z,11.60
2022-12-17T10:32:47.933Z,12.10
2022-12-17T10:35:43.576Z,11.70
2022-12-17T10:38:29.613Z,11.80
2022-12-17T10:41:15.442Z,11.10
2022-12-17T10:44:01.588Z,12.53
2022-12-17T10:46:52.221Z,12.57
2022-12-17T10:49:41.978Z,12.17
2022-12-17T10:52:51.257Z,12.43
2022-12-17T10:55:45.848Z,12.37
2022-12-17T10:58:43.744Z,12.00
2022-12-17T11:01:36.745Z,12.13
2022-12-17T11:04:22.569Z,11.57
2022-12-17T11:07:10.494Z,12.70
2022-12-17T11:10:09.005Z,11.43
2022-12-17T11:13:16.033Z,12.30
2022-12-17T11:16:13.107Z,12.73
2022-12-17T11:18:58.870Z,11.57
2022-12-17T11:21:49.989Z,12.33
2022-12-17T11:24:49.646Z,12.07
2022-12-17T11:27:43.824Z,12.20
2022-12-17T11:30:34.255Z,12.63
2022-12-17T11:33:43.617Z,12.73
2022-12-17T11:36:43.168Z,12.80
2022-12-17T11:39:41.697Z,12.73
2022-12-17T11:42:50.980Z,12.13
2022-12-17T11:45:51.856Z,12.93
2022-12-17T11:48:47.367Z,13.40
2022-12-17T11:52:14.362Z,13.07
2022-12-17T11:55:26.133Z,13.80
2022-12-17T11:58:19.636Z,13.97
2022-12-17T12:01:21.435Z,14.70
2022-12-17T12:04:15.671Z,14.33
2022-12-17T12:07:19.191Z,14.73
2022-12-17T12:10:36.674Z,13.20
2022-12-17T12:13:22.491Z,14.13
2022-12-17T12:16:25.488Z,14.63
2022-12-17T12:19:48.672Z,13.90
2022-12-17T12:22:44.708Z,13.57
2022-12-17T12:25:48.793Z,14.30
2022-12-17T12:28:58.131Z,14.63
2022-12-17T12:31:49.628Z,13.50
2022-12-17T12:34:44.052Z,13.70
2022-12-17T12:37:36.413Z,13.17
2022-12-17T12:40:32.939Z,13.50
2022-12-17T12:43:39.830Z,15.03
2022-12-17T12:46:31.939Z,14.10
2022-12-17T12:49:35.671Z,13.10
2022-12-17T12:52:21.607Z,14.40
2022-12-17T12:55:11.312Z,13.50
2022-12-17T12:58:02.349Z,13.87
2022-12-17T13:00:58.376Z,14.60
2022-12-17T13:03:52.585Z,13.70
2022-12-17T13:06:37.642Z,13.93
2022-12-17T13:09:20.709Z,13.90
2022-12-17T13:12:15.222Z,13.87
2022-12-17T13:15:09.610Z,14.03
2022-12-17T13:17:39.916Z,14.67
2022-12-17T13:20:27.008Z,13.70
2022-12-17T13:23:14.279Z,14.17
2022-12-17T13:25:41.446Z,13.73
2022-12-17T13:28:28.240Z,13.43
2022-12-17T13:31:20.535Z,14.57
2022-12-17T13:33:56.333Z,14.17
2022-12-17T13:36:48.786Z,13.00
2022-12-17T13:39:45.672Z,13.50
2022-12-17T13:42:38.098Z,14.60
2022-12-17T13:45:05.407Z,14.37
2022-12-17T13:47:35.206Z,14.40
2022-12-17T13:50:33.731Z,14.00
2022-12-17T13:53:10.546Z,13.47
2022-12-17T13:55:38.373Z,13.23
2022-12-17T13:58:05.441Z,13.97
2022-12-17T14:00:32.890Z,14.27
2022-12-17T14:03:10.865Z,14.93
2022-12-17T14:05:41.890Z,13.90
2022-12-17T14:08:12.149Z,15.20
2022-12-17T14:11:13.174Z,13.93
2022-12-17T14:13:40.573Z,14.90
2022-12-17T14:16:07.918Z,13.63
2022-12-17T14:18:35.722Z,14.87
2022-12-17T14:21:02.716Z,15.07
2022-12-17T14:23:32.288Z,15.23
2022-12-17T14:25:59.823Z,14.67
2022-12-17T14:28:48.705Z,14.70
2022-12-17T14:31:27.210Z,14.00
2022-12-17T14:34:10.920Z,17.67
2022-12-17T14:36:43.248Z,16.70
2022-12-17T14:39:23.902Z,16.43
2022-12-17T14:42:09.475Z,15.27
2022-12-17T14:44:42.670Z,15.03
2022-12-17T14:47:23.413Z,14.87
2022-12-17T14:50:29.021Z,15.50
2022-12-17T14:52:57.945Z,14.33
2022-12-17T14:55:30.018Z,15.37
2022-12-17T14:58:07.877Z,15.87
2022-12-17T15:00:39.102Z,14.63
2022-12-17T15:03:06.731Z,14.33
2022-12-17T15:05:35.189Z,15.50
2022-12-17T15:08:02.244Z,16.27
2022-12-17T15:10:28.911Z,15.63
2022-12-17T15:12:56.097Z,15.33
2022-12-17T15:15:22.859Z,15.47
2022-12-17T15:17:49.990Z,15.20
2022-12-17T15:20:19.662Z,15.07
2022-12-17T15:22:47.640Z,15.17
2022-12-17T15:25:17.769Z,15.20
2022-12-17T15:27:44.941Z,16.17
2022-12-17T15:30:16.320Z,17.07
2022-12-17T15:32:43.419Z,14.53
2022-12-17T15:35:11.686Z,15.93
2022-12-17T15:37:38.606Z,15.80
2022-12-17T15:40:06.914Z,14.70
2022-12-17T15:42:52.614Z,14.47
2022-12-17T15:45:19.674Z,16.30
2022-12-17T15:47:46.344Z,15.00
2022-12-17T15:50:12.984Z,15.33
2022-12-17T15:52:40.057Z,15.33
2022-12-17T15:55:07.074Z,15.90
2022-12-17T15:57:34.183Z,15.40
2022-12-17T16:00:00.821Z,16.87
2022-12-17T16:02:27.607Z,16.23
2022-12-17T16:04:54.432Z,16.33
2022-12-17T16:07:21.070Z,16.33
2022-12-17T16:09:47.777Z,14.77
2022-12-17T16:12:14.881Z,15.30
2022-12-17T16:14:41.523Z,14.90
2022-12-17T16:17:08.225Z,14.30
2022-12-17T16:19:35.303Z,13.20
2022-12-17T16:22:02.016Z,14.13
2022-12-17T16:24:29.094Z,14.37
2022-12-17T16:26:59.412Z,14.17
2022-12-17T16:29:29.904Z,13.87
2022-12-17T16:31:56.594Z,13.50
2022-12-17T16:34:23.667Z,13.93
2022-12-17T16:36:50.739Z,13.40
2022-12-17T16:39:19.098Z,14.43
2022-12-17T16:41:45.867Z,13.67
2022-12-17T16:44:13.226Z,15.27
2022-12-17T16:46:42.544Z,15.00
2022-12-17T16:49:18.352Z,14.93
2022-12-17T16:51:47.922Z,13.90
2022-12-17T16:54:16.971Z,14.47
2022-12-17T16:56:45.121Z,13.97
2022-12-17T16:59:13.485Z,15.30
2022-12-17T17:01:42.254Z,14.97
2022-12-17T17:04:09.928Z,16.97
2022-12-17T17:06:41.064Z,16.30
2022-12-17T17:09:08.060Z,17.43
2022-12-17T17:11:35.168Z,22.70
2022-12-17T17:14:02.232Z,22.43
2022-12-17T17:16:30.221Z,19.30
2022-12-17T17:18:57.477Z,17.60
2022-12-17T17:21:57.753Z,18.30
2022-12-17T17:24:25.745Z,19.90
2022-12-17T17:26:53.883Z,19.23
2022-12-17T17:29:21.054Z,18.27
2022-12-17T17:34:38.883Z,16.80
2022-12-17T17:37:05.947Z,21.60
2022-12-17T17:39:34.108Z,18.13
2022-12-17T17:42:01.361Z,18.30
2022-12-17T17:44:28.464Z,15.77
2022-12-17T17:46:55.293Z,17.70
2022-12-17T17:49:22.438Z,17.30
2022-12-17T17:52:08.974Z,18.23
2022-12-17T17:54:36.551Z,17.03
2022-12-17T17:57:03.274Z,17.30
2022-12-17T17:59:33.607Z,17.03
2022-12-17T18:02:02.338Z,15.27
2022-12-17T18:04:29.211Z,15.83
2022-12-17T18:07:27.174Z,15.40
2022-12-17T18:09:43.667Z,15.27
2022-12-17T18:12:29.660Z,15.63
2022-12-17T18:17:50.707Z,16.27
2022-12-17T18:20:17.941Z,16.60
2022-12-17T18:22:46.069Z,16.47
2022-12-17T18:25:13.203Z,16.67
2022-12-17T18:27:40.256Z,14.67
2022-12-17T18:30:07.587Z,14.53
2022-12-17T18:32:34.730Z,14.97
2022-12-17T18:35:01.772Z,16.00
2022-12-17T18:37:28.553Z,16.27
2022-12-17T18:39:55.214Z,15.63
2022-12-17T18:42:40.459Z,15.13
2022-12-17T18:45:07.635Z,15.40
2022-12-17T18:47:34.753Z,14.20
2022-12-17T18:50:01.830Z,15.43
2022-12-17T18:52:28.910Z,13.90
2022-12-17T18:54:55.603Z,15.07
2022-12-17T18:57:22.304Z,13.93
2022-12-17T18:59:49.549Z,14.00
2022-12-17T19:02:16.796Z,14.57
2022-12-17T19:04:43.534Z,15.17
2022-12-17T19:07:10.722Z,15.63
2022-12-17T19:09:40.416Z,14.77
2022-12-17T19:12:09.258Z,14.47
2022-12-17T19:14:36.452Z,14.40
2022-12-17T19:17:03.484Z,14.57
2022-12-17T19:19:30.234Z,14.20
2022-12-17T19:21:59.580Z,15.27
2022-12-17T19:24:26.385Z,14.93
2022-12-17T19:26:53.179Z,14.20
2022-12-17T19:29:20.652Z,15.07
2022-12-17T19:31:47.824Z,14.20
2022-12-17T19:34:16.297Z,14.47
2022-12-17T19:36:43.808Z,15.03
2022-12-17T19:39:16.474Z,13.67
2022-12-17T19:41:43.632Z,14.27
2022-12-17T19:44:15.463Z,15.73
2022-12-17T19:46:42.449Z,15.80
2022-12-17T19:49:12.346Z,15.63
2022-12-17T19:51:41.151Z,15.53
2022-12-17T19:54:09.369Z,14.77
2022-12-17T19:56:36.731Z,14.07
2022-12-17T19:59:07.110Z,14.33
2022-12-17T20:01:36.733Z,14.00
2022-12-17T20:04:04.336Z,14.73
2022-12-17T20:06:33.457Z,13.37
2022-12-17T20:09:01.367Z,13.13
2022-12-17T20:11:34.514Z,14.53
2022-12-17T20:14:10.485Z,13.87
2022-12-17T20:16:45.492Z,14.53
2022-12-17T20:19:14.586Z,13.80
2022-12-17T20:21:41.848Z,14.30
2022-12-17T20:24:09.277Z,14.40
2022-12-17T20:26:36.899Z,14.27
2022-12-17T20:29:05.019Z,13.07
2022-12-17T20:31:32.736Z,13.33
2022-12-17T20:34:03.729Z,13.13
2022-12-17T20:36:30.580Z,13.27
2022-12-17T20:38:57.343Z,13.53
2022-12-17T20:41:26.159Z,14.20
2022-12-17T20:43:53.601Z,12.90
2022-12-17T20:46:21.790Z,12.77
2022-12-17T20:48:49.294Z,13.67
2022-12-17T20:51:18.703Z,12.93
2022-12-17T20:53:46.087Z,12.97
2022-12-17T20:56:15.699Z,13.87
2022-12-17T20:58:43.165Z,11.90
2022-12-17T21:01:20.780Z,12.57
2022-12-17T21:03:49.623Z,12.80
2022-12-17T21:06:25.134Z,13.03
2022-12-17T21:08:53.448Z,13.13
2022-12-17T21:11:22.898Z,12.43
2022-12-17T21:13:49.987Z,13.30
2022-12-17T21:16:20.356Z,12.20
2022-12-17T21:18:47.846Z,13.60
2022-12-17T21:21:18.269Z,12.27
2022-12-17T21:23:47.111Z,14.07
2022-12-17T21:26:23.720Z,13.27
2022-12-17T21:28:53.137Z,13.37
2022-12-17T21:31:23.014Z,13.40
2022-12-17T21:33:51.721Z,13.67
2022-12-17T21:36:21.367Z,14.47
2022-12-17T21:38:49.354Z,13.77
2022-12-17T21:41:18.640Z,12.20
2022-12-17T21:43:45.746Z,12.20
2022-12-17T21:46:12.993Z,12.20
2022-12-17T21:48:42.495Z,12.50
2022-12-17T21:51:12.338Z,13.70
2022-12-17T21:53:42.755Z,11.67
2022-12-17T21:56:15.503Z,12.80
2022-12-17T21:58:44.490Z,12.30
2022-12-17T22:01:19.311Z,13.00
2022-12-17T22:03:53.848Z,12.20
2022-12-17T22:06:24.028Z,12.63
2022-12-17T22:08:57.130Z,12.50
2022-12-17T22:11:32.894Z,11.00
2022-12-17T22:14:07.352Z,11.37
2022-12-17T22:16:47.223Z,12.33
2022-12-17T22:19:15.168Z,12.60
2022-12-17T22:21:44.544Z,11.57
2022-12-17T22:24:17.791Z,11.67
2022-12-17T22:26:45.076Z,11.17
2022-12-17T22:29:11.984Z,10.90
2022-12-17T22:31:57.108Z,11.60
2022-12-17T22:35:43.860Z,12.13
2022-12-17T22:39:54.403Z,11.83
2022-12-17T22:43:25.120Z,11.70
2022-12-17T22:44:45.169Z,12.60
2022-12-17T22:45:51.637Z,11.67
2022-12-17T22:48:21.247Z,10.83
2022-12-17T22:51:02.467Z,12.03
2022-12-17T22:53:33.183Z,11.50
2022-12-17T22:56:19.438Z,11.60
2022-12-17T22:58:53.472Z,12.43
2022-12-17T23:01:23.102Z,13.53
2022-12-17T23:03:50.260Z,11.70
2022-12-17T23:06:17.876Z,11.73
2022-12-17T23:08:45.157Z,12.43
2022-12-17T23:11:21.502Z,14.10
2022-12-17T23:13:48.586Z,11.67
2022-12-17T23:16:16.154Z,11.13
2022-12-17T23:18:44.146Z,11.37
2022-12-17T23:21:11.610Z,11.73
2022-12-17T23:23:38.991Z,11.37
2022-12-17T23:26:18.361Z,10.83
2022-12-17T23:28:46.089Z,10.57
2022-12-17T23:31:20.215Z,11.33
2022-12-17T23:33:47.566Z,11.63
2022-12-17T23:36:16.992Z,11.07
2022-12-17T23:38:44.691Z,11.57
2022-12-17T23:41:26.776Z,10.87
2022-12-17T23:43:54.549Z,11.73
2022-12-17T23:46:23.003Z,11.13
2022-12-17T23:48:50.302Z,11.53
2022-12-17T23:51:18.811Z,10.57
2022-12-17T23:53:45.639Z,10.17
2022-12-17T23:56:18.299Z,10.50
2022-12-17T23:58:46.516Z,10.33
